4R9 weather

Dauphin Island Airport
Dauphin Island, Alabama, United States

Public forecast

Using degrees Fahrenheit for public forecast. Weather courtesy of forecast.io.

METAR (pilot weather report)

Closest report is H L Sonny Callahan Airport, 17.7 nm (32.7 km) NE. Retrieved 2019/08/21 11:35 UTC (14 minutes ago):

KCQF 211135Z AUTO 00000KT 10SM CLR 22/22 A3005 RMK AO2

TAF (pilot weather forecast)

Closest forecast is Mobile Downtown Airport, 22.2 nm (41.1 km) N. Retrieved 2019/08/21 06:22 UTC (5 hours ago):

TAF KBFM 210520Z 2106/2206 00000KT P6SM SCT040 OVC060 FM211100 VRB04KT 3SM BR OVC025 FM211400 14007KT P6SM VCTS SCT020CB BKN050 BKN250 FM211800 15006KT P6SM SCT025 BKN050 BKN250 TEMPO 2120/2124 3SM TSRA BKN020CB FM220200 14004KT P6SM SCT100 BKN250